Hoopa, CA (95546)

7:03 PM PDT on July 25, 2017 (GMT -0700)
MSHUC1 | | Change Station
Active Advisory: Special Statement

Elev 2650 ft 41.14 °N, 123.91 °W | Updated 69 days ago

Clear
Clear
36.0 °F
Feels Like 36.0 °F
N
3.0
Wind Variable Wind from North
Gusts 8.0 mph

Today
High -- | Low -- °F
--% Chance of Precip.
Yesterday
High -- | Low -- °F
Precip. -- in
Pressure 30.00 in
Visibility 7.0 miles
Clouds Clear
Dew Point 36.0 °F
Humidity 100%
Rainfall 0.00 in
Snow Depth Not available.
6:04 AM 8:37 PM
Waxing Crescent, 9% visible
METAR KACV 260153Z AUTO 25005KT 7SM CLR 14/12 A2999 RMK AO2 SLP159 T01390122
Pressure 30.00 in
Visibility 7.0 miles
Clouds Clear
Dew Point 36.0 °F
Humidity 100%
Rainfall 0.00 in
Snow Depth Not available.
6:04 AM 8:37 PM
Waxing Crescent, 9% visible
METAR KACV 260153Z AUTO 25005KT 7SM CLR 14/12 A2999 RMK AO2 SLP159 T01390122

Get Your Daily Forecast Email!

Thanks for signing up!

Be on the lookout for a verification email in your inbox.

You'll start receiving severe weather alerts in your inbox..

×

10-Day Weather Forecast

Almanac

Astronomy

Jul. 25, 2017 Rise Set
Actual Time
Civil Twilight
Nautical Twilight
Astronomical Twilight
Moon
Length of Visible Light
Length of Day
Tomorrow will be .
, % of the Moon is Illuminated

Today's Extremes

State Highs State Lows

Community

WunderPhotos

Category 6

Welcome to Category 6. This is the collective home for Weather Underground's featured writeups by Dr. Jeff Masters (right), Bob Henson (left), Chris Burt, and other regular contributors.

Nearby

Air Quality

  Air Quality AQ Index Pollutant
Not available.

Snow Depth

Station Depth Elevation

Earthquake Activity

City Distance Mag. Time & Date
Minimum magnitude displayed is 2.5.

Coastal Water Temperatures

Place Temperature

Stations

Nearby Weather Stations

Station Location Temp. Windchill Dew Point Humidity Wind Precip. Elev Updated Type
                   

Watches & Warnings

Special Statement
Issued: 6:38 PM PDT Jul. 25, 2017 – National Weather Service

... Significant weather advisory for northeastern Humboldt County
until 715 PM PDT...

At 636 PM PDT, Doppler radar was tracking a strong thunderstorm over
Orleans, moving west at 25 mph.

Penny to dime size hail and winds up to 30 mph will be possible with
this storm.

Locations impacted include...
Orleans.

Lat... Lon 4136 12348 4133 12348 4132 12347 4124 12345
      4124 12346 4122 12344 4120 12355 4134 12359
time... Mot... loc 0136z 071deg 22kt 4128 12349


Kr